Time;durP1;ratioP1;P1;durP2;ratioP2;P2;SDS_P1;SDS_P2;PMS_P1;PMS_P2;Temp;Humidity;BMP_temperature;BMP_pressure;BME280_temperature;BME280_humidity;BME280_pressure;Samples;Min_cycle;Max_cycle;Signal;HPM_P1;HPM_P2
2022/06/19 00:01:45;;;;;;;11.67;4.73;;;;;;;;;;5006012;28;20458;-86
2022/06/19 00:04:10;;;;;;;17.50;5.50;;;25.80;58.90;;;;;;5006391;28;20183;-83
2022/06/19 00:06:36;;;;;;;21.87;4.87;;;25.70;59.60;;;;;;4994676;28;20449;-84
2022/06/19 00:09:04;;;;;;;7.40;3.47;;;25.60;60.10;;;;;;5004064;28;20614;-83
2022/06/19 00:11:30;;;;;;;18.83;4.90;;;25.90;60.60;;;;;;5019356;28;20620;-82
2022/06/19 00:13:56;;;;;;;21.87;4.80;;;25.50;60.50;;;;;;5028195;28;20492;-87
2022/06/19 00:16:21;;;;;;;15.50;4.30;;;25.30;60.60;;;;;;5017164;28;20697;-84
2022/06/19 00:18:47;;;;;;;14.83;5.07;;;25.30;61.20;;;;;;4998286;28;20194;-84
2022/06/19 00:21:15;;;;;;;17.03;5.80;;;25.30;61.90;;;;;;5000563;28;20651;-85
2022/06/19 00:23:42;;;;;;;19.50;4.70;;;25.40;61.20;;;;;;5006592;28;20204;-87
2022/06/19 00:26:07;;;;;;;13.83;4.70;;;25.40;60.10;;;;;;5023693;28;20536;-87
2022/06/19 00:28:33;;;;;;;13.33;4.23;;;;;;;;;;5008763;28;20528;-85
2022/06/19 00:30:59;;;;;;;16.53;3.93;;;25.50;59.90;;;;;;5023717;28;20190;-83
2022/06/19 00:33:25;;;;;;;10.07;3.90;;;25.60;60.70;;;;;;5002934;28;20452;-85
2022/06/19 00:35:50;;;;;;;12.00;4.73;;;25.60;59.80;;;;;;5021811;28;20191;-84
2022/06/19 00:38:16;;;;;;;8.37;3.70;;;25.50;60.30;;;;;;5004164;28;20213;-86
2022/06/19 00:40:41;;;;;;;25.63;4.57;;;25.50;60.30;;;;;;5001626;28;20645;-87
2022/06/19 00:43:07;;;;;;;12.40;3.97;;;25.00;60.10;;;;;;5008160;28;20191;-86
2022/06/19 00:45:35;;;;;;;16.03;4.33;;;25.60;60.00;;;;;;5021129;28;20194;-84
2022/06/19 00:48:09;;;;;;;15.70;4.10;;;25.60;59.30;;;;;;5002997;28;20206;-85
2022/06/19 00:50:36;;;;;;;12.83;4.50;;;25.60;60.00;;;;;;5016056;28;20728;-85
2022/06/19 00:53:08;;;;;;;18.80;5.07;;;25.60;60.00;;;;;;5006779;28;20547;-87
2022/06/19 00:55:38;;;;;;;16.40;4.67;;;25.50;60.30;;;;;;5019113;28;20493;-85
2022/06/19 00:58:09;;;;;;;15.73;4.80;;;25.50;59.70;;;;;;5021011;28;20799;-85
2022/06/19 01:00:36;;;;;;;8.77;3.20;;;25.50;59.80;;;;;;5025226;28;20460;-84
2022/06/19 01:03:11;;;;;;;14.23;4.37;;;25.50;60.40;;;;;;5004229;28;21188;-84
2022/06/19 01:05:39;;;;;;;12.97;4.53;;;25.50;60.50;;;;;;5019502;28;20440;-85
2022/06/19 01:08:05;;;;;;;13.67;4.10;;;25.40;60.40;;;;;;5013043;28;20445;-84
2022/06/19 01:10:33;;;;;;;18.83;5.00;;;25.30;61.00;;;;;;5009406;28;20444;-84
2022/06/19 01:12:59;;;;;;;16.73;4.33;;;25.30;61.90;;;;;;5011692;28;20527;-84
2022/06/19 01:15:25;;;;;;;14.03;4.23;;;26.20;63.00;;;;;;5008881;28;20833;-85
2022/06/19 01:17:59;;;;;;;16.80;3.60;;;25.20;62.00;;;;;;5004743;28;20476;-83
2022/06/19 01:20:25;;;;;;;17.03;4.00;;;;;;;;;;5017429;28;20465;-84
2022/06/19 01:23:21;;;;;;;10.53;4.87;;;25.10;63.10;;;;;;5016371;28;20455;-82
2022/06/19 01:25:50;;;;;;;21.00;4.40;;;24.20;62.40;;;;;;5001076;28;20441;-85
2022/06/19 01:31:10;;;;;;;28.83;4.60;;;24.90;64.80;;;;;;5002915;28;20503;-84
2022/06/19 01:33:40;;;;;;;15.83;4.40;;;24.70;65.50;;;;;;5015247;28;20441;-85
2022/06/19 01:36:08;;;;;;;18.30;4.40;;;24.60;66.00;;;;;;5011475;28;20457;-85
2022/06/19 01:38:34;;;;;;;18.83;5.20;;;24.40;66.70;;;;;;5014341;28;20441;-85
2022/06/19 01:41:06;;;;;;;13.10;5.30;;;24.40;67.40;;;;;;5000301;28;20681;-85
2022/06/19 01:43:33;;;;;;;14.60;4.80;;;24.40;68.50;;;;;;5002108;28;20438;-85
2022/06/19 01:45:58;;;;;;;26.93;7.23;;;25.50;71.20;;;;;;5011815;28;21079;-83
2022/06/19 01:48:28;;;;;;;20.73;6.80;;;23.90;76.50;;;;;;4997924;28;20444;-84
2022/06/19 01:50:55;;;;;;;18.50;6.10;;;23.10;84.10;;;;;;5017326;22;20170;-87
2022/06/19 01:53:42;;;;;;;19.03;5.10;;;23.10;84.80;;;;;;5012250;28;21688;-86
2022/06/19 01:56:10;;;;;;;11.70;4.20;;;22.90;86.90;;;;;;5032827;28;20436;-88
2022/06/19 01:58:49;;;;;;;18.70;6.13;;;22.50;90.00;;;;;;5031056;28;20486;-87
2022/06/19 02:01:15;;;;;;;12.50;4.60;;;;;;;;;;5055484;28;20436;-86
2022/06/19 02:03:46;;;;;;;14.03;4.57;;;22.30;91.50;;;;;;5033518;28;20454;-87
2022/06/19 02:06:15;;;;;;;18.53;5.20;;;22.30;91.50;;;;;;5025902;28;20471;-86
2022/06/19 02:08:42;;;;;;;17.80;4.67;;;;;;;;;;5035330;28;20431;-87
2022/06/19 02:11:09;;;;;;;11.93;3.60;;;22.10;93.10;;;;;;5030086;28;20459;-87
2022/06/19 02:13:37;;;;;;;12.10;5.83;;;23.60;94.90;;;;;;5030360;28;20471;-87
2022/06/19 02:16:12;;;;;;;7.87;3.77;;;22.00;93.90;;;;;;5018127;28;20886;-87
2022/06/19 02:18:41;;;;;;;14.73;4.47;;;22.00;94.90;;;;;;5022249;28;20972;-88
2022/06/19 02:21:11;;;;;;;15.27;5.10;;;22.00;95.30;;;;;;5015399;28;20467;-88
2022/06/19 02:23:38;;;;;;;19.00;6.80;;;21.60;99.90;;;;;;5010611;28;20687;-87
2022/06/19 02:26:09;;;;;;;15.07;5.03;;;21.50;99.90;;;;;;5014674;28;20436;-88
2022/06/19 02:28:36;;;;;;;14.13;6.10;;;21.50;99.90;;;;;;5030327;28;20471;-87
2022/06/19 02:31:03;;;;;;;10.67;4.57;;;22.50;99.90;;;;;;5029191;28;20945;-89
2022/06/19 02:33:32;;;;;;;17.07;5.53;;;21.50;99.90;;;;;;5016573;28;20451;-86
2022/06/19 02:35:58;;;;;;;16.37;5.20;;;21.50;99.90;;;;;;5014197;28;20524;-87
2022/06/19 02:38:24;;;;;;;20.10;5.47;;;21.50;99.90;;;;;;5029940;22;20849;-82
2022/06/19 02:41:10;;;;;;;12.27;3.70;;;21.50;99.90;;;;;;5020629;28;20813;-82
2022/06/19 02:43:36;;;;;;;18.90;5.20;;;21.80;99.90;;;;;;5021354;28;20184;-83
2022/06/19 02:46:06;;;;;;;14.53;5.10;;;22.00;99.90;;;;;;5015090;28;21448;-81
2022/06/19 02:48:33;;;;;;;20.07;5.57;;;21.90;99.90;;;;;;5020018;28;20205;-83
2022/06/19 02:51:03;;;;;;;17.50;5.67;;;21.80;99.90;;;;;;5024879;28;20543;-83
2022/06/19 02:53:29;;;;;;;13.83;5.40;;;21.80;99.90;;;;;;5018322;28;20461;-83
2022/06/19 02:55:55;;;;;;;16.60;5.40;;;21.70;99.90;;;;;;5017770;28;20437;-84
2022/06/19 02:58:21;;;;;;;20.13;4.67;;;21.60;99.90;;;;;;5015457;28;20526;-84
2022/06/19 03:00:48;;;;;;;16.60;4.83;;;22.10;99.90;;;;;;5016165;28;20527;-83
2022/06/19 03:03:27;;;;;;;14.90;4.90;;;21.80;99.90;;;;;;5018587;28;20760;-85
2022/06/19 03:05:53;;;;;;;17.13;5.10;;;21.90;99.90;;;;;;5018389;28;20967;-84
2022/06/19 03:08:19;;;;;;;11.93;4.60;;;21.90;99.90;;;;;;5019781;28;20495;-85
2022/06/19 03:10:45;;;;;;;16.53;5.50;;;;;;;;;;5020280;28;20432;-85
2022/06/19 03:13:10;;;;;;;19.97;5.30;;;21.90;99.90;;;;;;5021375;28;20194;-85
2022/06/19 03:15:36;;;;;;;16.57;4.80;;;21.80;99.90;;;;;;5015674;28;20468;-84
2022/06/19 03:18:02;;;;;;;21.47;5.33;;;21.70;99.90;;;;;;5027112;28;20178;-83
2022/06/19 03:20:28;;;;;;;12.10;5.23;;;;;;;;;;5028083;28;20436;-83
2022/06/19 03:22:54;;;;;;;13.63;5.10;;;21.70;99.90;;;;;;5018256;28;20494;-84
2022/06/19 03:25:21;;;;;;;13.50;5.87;;;21.60;99.90;;;;;;5017209;28;20451;-85
2022/06/19 03:27:48;;;;;;;16.93;5.23;;;21.50;99.90;;;;;;5017233;28;20440;-84
2022/06/19 03:30:16;;;;;;;15.30;5.57;;;21.50;99.90;;;;;;5025361;28;20528;-83
2022/06/19 03:32:42;;;;;;;8.90;4.73;;;;;;;;;;5019333;28;20459;-84
2022/06/19 03:35:09;;;;;;;12.63;5.47;;;21.40;99.90;;;;;;5022320;28;20464;-84
2022/06/19 03:37:34;;;;;;;9.57;5.20;;;22.80;99.90;;;;;;5020466;28;21174;-85
2022/06/19 03:40:00;;;;;;;17.03;4.40;;;21.50;99.90;;;;;;5026180;28;20500;-84
2022/06/19 03:42:26;;;;;;;13.83;4.27;;;21.60;99.90;;;;;;5018332;28;20186;-83
2022/06/19 03:44:52;;;;;;;17.97;5.13;;;;;;;;;;5013581;28;20266;-84
2022/06/19 03:47:21;;;;;;;17.43;4.60;;;22.40;99.90;;;;;;5029763;28;20192;-85
2022/06/19 03:49:47;;;;;;;19.83;4.70;;;22.40;99.90;;;;;;5022395;28;20518;-85
2022/06/19 03:52:13;;;;;;;11.60;5.70;;;;;;;;;;5021981;28;20464;-83
2022/06/19 03:54:39;;;;;;;22.07;6.10;;;22.50;99.90;;;;;;5023521;28;20212;-84
2022/06/19 03:57:05;;;;;;;19.30;4.90;;;;;;;;;;5025569;28;20439;-82
2022/06/19 03:59:31;;;;;;;13.50;5.47;;;22.10;99.90;;;;;;5024851;28;20505;-83
2022/06/19 04:01:56;;;;;;;15.33;6.37;;;22.00;99.90;;;;;;5013998;28;22830;-82
2022/06/19 04:04:22;;;;;;;17.90;5.40;;;22.10;99.90;;;;;;5011039;28;20448;-83
2022/06/19 04:06:47;;;;;;;17.63;7.23;;;21.80;99.90;;;;;;5026610;28;20198;-81
2022/06/19 04:09:15;;;;;;;20.00;6.37;;;22.00;99.90;;;;;;5034385;28;20209;-84
2022/06/19 04:11:41;;;;;;;16.37;6.13;;;22.10;99.90;;;;;;5023143;28;20193;-82
2022/06/19 04:14:11;;;;;;;20.13;6.30;;;22.20;99.90;;;;;;5026451;28;20448;-85
2022/06/19 04:16:38;;;;;;;20.90;5.50;;;22.30;99.90;;;;;;5017887;28;20444;-83
2022/06/19 04:19:06;;;;;;;10.73;5.20;;;23.00;99.90;;;;;;5019671;28;20818;-83
2022/06/19 04:21:38;;;;;;;15.60;5.73;;;23.30;99.90;;;;;;5018958;28;20582;-83
2022/06/19 04:24:04;;;;;;;17.77;6.17;;;23.80;99.90;;;;;;5016829;28;20432;-84
2022/06/19 04:26:33;;;;;;;17.37;4.80;;;24.80;99.90;;;;;;5015798;28;20452;-82
2022/06/19 04:28:59;;;;;;;16.30;5.90;;;26.30;98.60;;;;;;5017730;28;20456;-83
2022/06/19 04:31:25;;;;;;;15.33;5.40;;;27.00;96.90;;;;;;5016961;28;20444;-82
2022/06/19 04:33:51;;;;;;;16.40;6.17;;;27.20;97.20;;;;;;5019129;28;20463;-84
2022/06/19 04:36:19;;;;;;;14.77;5.40;;;28.40;94.20;;;;;;5024644;28;20446;-85
2022/06/19 04:38:50;;;;;;;10.03;5.03;;;30.70;85.10;;;;;;5020370;28;21006;-85
2022/06/19 04:41:38;;;;;;;17.07;5.97;;;31.60;79.00;;;;;;5020621;28;20444;-84
2022/06/19 04:44:10;;;;;;;11.37;5.13;;;32.00;78.90;;;;;;5015812;28;20436;-84
2022/06/19 04:46:36;;;;;;;14.63;6.10;;;33.40;73.30;;;;;;5019858;28;21084;-82
2022/06/19 04:49:01;;;;;;;9.90;5.97;;;;;;;;;;5021014;28;20447;-82
2022/06/19 04:51:27;;;;;;;19.30;5.63;;;;;;;;;;5034063;28;20444;-84
2022/06/19 04:53:53;;;;;;;13.43;6.63;;;;;;;;;;5014580;28;20438;-84
2022/06/19 04:56:20;;;;;;;14.90;6.10;;;35.70;58.70;;;;;;5020291;28;20435;-84
2022/06/19 04:58:46;;;;;;;13.03;7.40;;;;;;;;;;5019298;28;20454;-85
2022/06/19 05:01:23;;;;;;;17.23;7.00;;;34.60;57.70;;;;;;5024196;28;20528;-83
2022/06/19 05:03:50;;;;;;;12.77;6.10;;;34.60;61.60;;;;;;5022507;28;20447;-86
2022/06/19 05:06:16;;;;;;;16.13;7.60;;;35.40;67.30;;;;;;5023809;28;20421;-86
2022/06/19 05:08:42;;;;;;;17.00;6.50;;;;;;;;;;5022313;28;20489;-83
2022/06/19 05:11:11;;;;;;;19.03;7.03;;;37.20;54.50;;;;;;5023550;28;20243;-83
2022/06/19 05:13:37;;;;;;;12.43;7.60;;;;;;;;;;5021934;28;20442;-84
2022/06/19 05:16:10;;;;;;;15.63;7.10;;;36.70;54.00;;;;;;5020352;28;20447;-83
2022/06/19 05:18:36;;;;;;;15.30;8.57;;;;;;;;;;5020624;28;20813;-87
2022/06/19 05:21:04;;;;;;;13.90;7.87;;;39.50;47.60;;;;;;5018863;28;20418;-87
2022/06/19 05:23:30;;;;;;;17.43;8.83;;;;;;;;;;5017133;28;20438;-86
2022/06/19 05:26:02;;;;;;;18.40;10.40;;;37.90;50.20;;;;;;5016005;28;20970;-85
2022/06/19 05:28:29;;;;;;;17.90;10.13;;;;;;;;;;5012215;28;20830;-85
2022/06/19 05:30:55;;;;;;;14.63;9.57;;;;;;;;;;5015187;28;21133;-82
2022/06/19 05:33:21;;;;;;;14.80;11.17;;;;;;;;;;5018736;28;20496;-86
2022/06/19 05:35:47;;;;;;;19.97;10.83;;;;;;;;;;5020909;28;21541;-85
2022/06/19 05:38:13;;;;;;;18.57;10.33;;;;;;;;;;5022657;28;20185;-85
2022/06/19 05:40:40;;;;;;;18.80;10.17;;;39.60;46.90;;;;;;5021649;28;20607;-85
2022/06/19 05:43:06;;;;;;;14.93;9.73;;;;;;;;;;5030434;28;20468;-86
2022/06/19 05:45:32;;;;;;;20.90;11.50;;;;;;;;;;5025839;28;20443;-85
2022/06/19 05:47:58;;;;;;;17.40;11.53;;;;;;;;;;5005312;28;20455;-86
2022/06/19 05:50:25;;;;;;;18.27;10.67;;;;;;;;;;5005314;28;20443;-86
2022/06/19 05:52:51;;;;;;;18.60;10.53;;;;;;;;;;5002036;28;20428;-87
2022/06/19 05:55:17;;;;;;;19.03;11.70;;;;;;;;;;5012103;28;20506;-87
2022/06/19 05:57:42;;;;;;;14.93;10.10;;;;;;;;;;5006487;28;21308;-87
2022/06/19 06:00:09;;;;;;;16.67;11.50;;;;;;;;;;5010034;28;20458;-87
2022/06/19 06:02:35;;;;;;;15.03;11.83;;;39.30;45.00;;;;;;5021500;28;22439;-86
2022/06/19 06:05:02;;;;;;;16.63;11.90;;;39.30;45.90;;;;;;5020826;28;20535;-87
2022/06/19 06:07:28;;;;;;;12.03;10.70;;;;;;;;;;5019145;28;21643;-88
2022/06/19 06:09:54;;;;;;;14.40;9.73;;;;;;;;;;5035115;28;20482;-88
2022/06/19 06:12:20;;;;;;;14.13;10.70;;;;;;;;;;5033980;28;20444;-86
2022/06/19 06:14:46;;;;;;;14.43;12.60;;;;;;;;;;5024372;28;21082;-87
2022/06/19 06:17:12;;;;;;;23.03;14.10;;;;;;;;;;5024687;28;20783;-86
2022/06/19 06:19:38;;;;;;;18.00;12.70;;;;;;;;;;5021724;28;20559;-87
2022/06/19 06:22:05;;;;;;;16.73;13.53;;;;;;;;;;5019186;28;20432;-86
2022/06/19 06:24:31;;;;;;;16.03;12.13;;;42.60;42.10;;;;;;5016272;28;20482;-87
2022/06/19 06:26:58;;;;;;;14.67;12.50;;;;;;;;;;5020962;28;20443;-88
2022/06/19 06:29:24;;;;;;;18.73;14.00;;;;;;;;;;5023261;28;20876;-87
2022/06/19 06:31:50;;;;;;;15.63;12.50;;;;;;;;;;5018921;28;20475;-87
2022/06/19 06:34:16;;;;;;;13.97;12.67;;;;;;;;;;5025728;28;20467;-87
2022/06/19 06:36:43;;;;;;;14.87;13.07;;;;;;;;;;5037184;28;20424;-84
2022/06/19 06:39:09;;;;;;;16.07;13.30;;;;;;;;;;5046580;28;20901;-89
2022/06/19 06:41:35;;;;;;;15.37;13.83;;;;;;;;;;5032186;28;20950;-87
2022/06/19 06:44:01;;;;;;;25.40;15.20;;;;;;;;;;5028398;28;20447;-88
2022/06/19 06:46:27;;;;;;;16.20;14.70;;;44.50;40.00;;;;;;5027790;28;20514;-86
2022/06/19 06:49:02;;;;;;;17.17;14.60;;;44.40;49.70;;;;;;5023882;28;20756;-88
2022/06/19 06:51:28;;;;;;;20.10;15.37;;;44.70;38.60;;;;;;5038959;28;20439;-89
2022/06/19 06:53:54;;;;;;;16.90;14.87;;;;;;;;;;5028577;28;20440;-86
2022/06/19 06:56:21;;;;;;;18.00;14.70;;;;;;;;;;5029208;28;21005;-86
2022/06/19 06:58:47;;;;;;;20.63;15.40;;;;;;;;;;5031817;28;20476;-87
2022/06/19 07:01:22;;;;;;;17.40;15.57;;;46.30;38.30;;;;;;5023176;28;21534;-87
2022/06/19 07:03:54;;;;;;;18.57;16.67;;;48.20;36.30;;;;;;5025508;28;21062;-85
2022/06/19 07:06:20;;;;;;;26.20;17.40;;;;;;;;;;5021406;28;20943;-85
2022/06/19 07:08:46;;;;;;;21.33;19.20;;;;;;;;;;5036409;28;20554;-87
2022/06/19 07:11:37;;;;;;;21.80;19.57;;;50.80;32.80;;;;;;5024425;28;22455;-87
2022/06/19 07:14:03;;;;;;;19.97;17.40;;;;;;;;;;5017136;28;20538;-86
2022/06/19 07:16:29;;;;;;;24.20;22.10;;;;;;;;;;5034734;28;20494;-88
2022/06/19 07:18:55;;;;;;;24.43;21.90;;;;;;;;;;5024570;28;20444;-88
2022/06/19 07:21:21;;;;;;;23.03;21.03;;;;;;;;;;5036754;28;20400;-86
2022/06/19 07:23:47;;;;;;;23.77;21.93;;;;;;;;;;5050681;28;20432;-88
2022/06/19 07:26:14;;;;;;;21.20;19.50;;;48.70;29.90;;;;;;5026633;28;20193;-85
2022/06/19 07:28:41;;;;;;;16.70;15.20;;;49.30;31.50;;;;;;5018991;28;20463;-88
2022/06/19 07:31:08;;;;;;;17.57;14.53;;;;;;;;;;5038560;28;20438;-88
2022/06/19 07:33:37;;;;;;;24.23;22.13;;;46.00;32.70;;;;;;5023260;28;20440;-88
2022/06/19 07:36:07;;;;;;;24.37;22.00;;;46.20;34.30;;;;;;5041677;28;20471;-88
2022/06/19 07:38:33;;;;;;;25.73;21.00;;;;;;;;;;5023050;28;20475;-87
2022/06/19 07:40:59;;;;;;;25.83;23.40;;;;;;;;;;5023817;28;20802;-88
2022/06/19 07:43:26;;;;;;;24.13;22.00;;;;;;;;;;5027545;28;20438;-88
2022/06/19 07:45:53;;;;;;;22.80;20.60;;;;;;;;;;5040916;28;20182;-87
2022/06/19 07:51:03;;;;;;;23.33;21.33;;;;;;;;;;5022754;28;21254;-86
2022/06/19 07:53:29;;;;;;;23.70;21.83;;;;;;;;;;5027281;28;20558;-87
2022/06/19 07:55:55;;;;;;;28.90;21.83;;;44.80;41.40;;;;;;5035137;28;20543;-89
2022/06/19 07:58:21;;;;;;;22.53;20.37;;;;;;;;;;5024062;28;20212;-86
2022/06/19 08:00:47;;;;;;;22.17;20.50;;;;;;;;;;5041997;28;20184;-87
2022/06/19 08:03:13;;;;;;;24.23;19.60;;;;;;;;;;5029211;28;20193;-87
2022/06/19 08:05:39;;;;;;;22.37;19.60;;;45.10;35.60;;;;;;5049328;28;20207;-84
2022/06/19 08:08:12;;;;;;;21.17;18.97;;;46.00;34.40;;;;;;5042116;28;20432;-87
2022/06/19 08:10:42;;;;;;;22.60;20.30;;;47.20;32.40;;;;;;5026578;28;20444;-88
2022/06/19 08:13:09;;;;;;;50.43;19.97;;;47.00;32.00;;;;;;5026677;28;20432;-87
2022/06/19 08:15:35;;;;;;;25.50;20.73;;;;;;;;;;5032306;28;20473;-86
2022/06/19 08:18:02;;;;;;;22.00;20.07;;;;;;;;;;5036261;28;21152;-88
2022/06/19 08:20:28;;;;;;;21.43;19.43;;;;;;;;;;5030834;28;20436;-88
2022/06/19 08:22:53;;;;;;;21.93;20.20;;;;;;;;;;5039486;28;20443;-87
2022/06/19 08:25:21;;;;;;;22.77;20.87;;;42.30;36.60;;;;;;5024787;28;22435;-86
2022/06/19 08:27:49;;;;;;;23.63;20.30;;;43.20;36.30;;;;;;5028053;28;20189;-88
2022/06/19 08:30:21;;;;;;;22.47;20.77;;;41.50;34.00;;;;;;5031343;28;20487;-88
2022/06/19 08:32:47;;;;;;;22.37;20.50;;;;;;;;;;5030737;28;20435;-86
2022/06/19 08:35:13;;;;;;;21.80;19.87;;;;;;;;;;5031709;28;20460;-88
2022/06/19 08:37:41;;;;;;;21.87;19.90;;;40.70;37.70;;;;;;5035155;28;20428;-87
2022/06/19 08:40:36;;;;;;;22.23;20.00;;;38.60;36.80;;;;;;5073726;22;20492;-92
2022/06/19 08:43:22;;;;;;;20.27;18.77;;;38.60;37.40;;;;;;5037723;28;20444;-91
2022/06/19 08:46:17;;;;;;;22.90;19.90;;;39.60;40.00;;;;;;5029143;28;20467;-93
2022/06/19 08:48:57;;;;;;;24.60;20.60;;;40.40;38.20;;;;;;5028569;28;20483;-92
2022/06/19 08:51:37;;;;;;;19.67;17.97;;;41.90;36.90;;;;;;5036111;28;20427;-91
2022/06/19 08:54:03;;;;;;;25.63;20.33;;;;;;;;;;5048399;28;20442;-93
2022/06/19 08:56:38;;;;;;;22.27;20.50;;;42.10;33.20;;;;;;5043115;28;20444;-91
2022/06/19 08:59:50;;;;;;;23.00;20.97;;;42.10;33.20;;;;;;5040587;28;20197;-90
2022/06/19 09:02:34;;;;;;;22.10;20.63;;;39.60;34.00;;;;;;4994833;28;20445;-90
2022/06/19 09:08:30;;;;;;;20.90;19.33;;;39.10;35.50;;;;;;5036320;28;20907;-92
2022/06/19 09:11:15;;;;;;;19.47;17.87;;;39.30;35.40;;;;;;5042046;28;20452;-91
2022/06/19 09:13:59;;;;;;;19.47;17.83;;;39.70;34.60;;;;;;5034510;28;20432;-90
2022/06/19 09:16:39;;;;;;;20.53;18.77;;;39.90;34.20;;;;;;5043323;28;20432;-91
2022/06/19 09:19:13;;;;;;;20.87;19.40;;;40.00;44.00;;;;;;5023677;28;20462;-89
2022/06/19 09:21:55;;;;;;;24.23;22.10;;;40.60;43.20;;;;;;5032139;28;20428;-91
2022/06/19 09:24:45;;;;;;;23.40;21.23;;;41.70;41.90;;;;;;5027408;28;20821;-91
2022/06/19 09:27:12;;;;;;;26.10;23.80;;;;;;;;;;5024802;28;20429;-91
2022/06/19 09:29:47;;;;;;;26.50;24.90;;;39.00;33.40;;;;;;5023570;28;20456;-91
2022/06/19 09:32:31;;;;;;;22.10;20.60;;;37.20;35.00;;;;;;5023694;28;20432;-90
2022/06/19 09:35:12;;;;;;;21.77;19.97;;;36.30;35.80;;;;;;5028286;28;20504;-91
2022/06/19 09:37:38;;;;;;;21.77;19.87;;;;;;;;;;5025724;28;20434;-90
2022/06/19 09:40:11;;;;;;;20.27;18.23;;;38.70;34.90;;;;;;5025373;28;20535;-90
2022/06/19 09:42:39;;;;;;;21.00;19.80;;;40.10;34.00;;;;;;5030533;28;20424;-90
2022/06/19 09:45:19;;;;;;;21.57;20.13;;;39.50;34.20;;;;;;5049065;28;20452;-91
2022/06/19 09:47:45;;;;;;;20.27;18.37;;;;;;;;;;5030347;28;20451;-90
2022/06/19 09:50:24;;;;;;;22.70;20.80;;;37.90;39.00;;;;;;5045317;28;20448;-90
2022/06/19 09:53:02;;;;;;;23.00;21.10;;;36.20;34.40;;;;;;5033818;28;20218;-93
2022/06/19 09:55:28;;;;;;;21.10;19.53;;;;;;;;;;5031244;28;21664;-90
2022/06/19 09:58:15;;;;;;;24.97;18.17;;;37.30;36.30;;;;;;5022252;28;20528;-91
2022/06/19 10:00:44;;;;;;;21.00;19.40;;;37.70;34.50;;;;;;5028240;28;20602;-90
2022/06/19 10:03:29;;;;;;;21.83;20.00;;;37.00;34.40;;;;;;5028725;28;20835;-89
2022/06/19 10:05:57;;;;;;;20.33;18.40;;;36.90;36.20;;;;;;5028991;28;20460;-90
2022/06/19 10:08:24;;;;;;;21.80;20.37;;;36.80;34.50;;;;;;5022929;28;20447;-90
2022/06/19 10:10:57;;;;;;;22.80;20.70;;;36.90;36.70;;;;;;5020736;28;20447;-91
2022/06/19 10:13:42;;;;;;;19.80;18.07;;;36.90;35.90;;;;;;5022935;28;20457;-90
2022/06/19 10:16:22;;;;;;;19.53;17.73;;;37.00;37.00;;;;;;5017927;28;20476;-88
2022/06/19 10:18:52;;;;;;;21.10;18.90;;;36.80;35.10;;;;;;5022002;28;20459;-91
2022/06/19 10:24:30;;;;;;;19.90;17.80;;;36.70;40.70;;;;;;5023168;28;20474;-90
2022/06/19 10:27:04;;;;;;;20.30;18.40;;;36.30;35.30;;;;;;5033451;28;20452;-90
2022/06/19 10:29:44;;;;;;;17.37;15.30;;;36.10;36.40;;;;;;5022889;28;20971;-91
2022/06/19 10:32:44;;;;;;;20.00;18.33;;;36.60;35.60;;;;;;5026845;28;20533;-91
2022/06/19 10:35:28;;;;;;;17.70;16.23;;;36.30;36.00;;;;;;5026664;28;20525;-89
2022/06/19 10:38:15;;;;;;;18.13;16.33;;;34.70;36.70;;;;;;5024317;28;22210;-91
2022/06/19 10:42:00;;;;;;;18.33;16.73;;;34.60;39.20;;;;;;5021942;28;20462;-90
2022/06/19 10:44:26;;;;;;;16.13;14.80;;;33.80;40.00;;;;;;5027168;28;20554;-90
2022/06/19 10:47:04;;;;;;;16.97;15.37;;;33.80;39.30;;;;;;5022724;28;20984;-90
2022/06/19 10:49:51;;;;;;;14.53;13.13;;;34.20;40.40;;;;;;5027657;28;20476;-90
2022/06/19 10:52:45;;;;;;;16.47;14.87;;;33.80;41.50;;;;;;5018477;28;20434;-88
2022/06/19 10:55:35;;;;;;;24.60;14.33;;;34.20;39.50;;;;;;5024166;28;20884;-91
2022/06/19 10:58:26;;;;;;;15.60;14.07;;;33.60;40.20;;;;;;5038825;28;20442;-91
2022/06/19 11:00:58;;;;;;;17.83;13.50;;;33.50;40.70;;;;;;5024043;28;20466;-90
2022/06/19 11:04:07;;;;;;;16.07;14.40;;;33.80;41.60;;;;;;5022000;28;20442;-89
2022/06/19 11:06:33;;;;;;;15.83;14.30;;;;;;;;;;5023446;28;20450;-89
2022/06/19 11:09:13;;;;;;;15.57;13.20;;;33.80;41.50;;;;;;5024830;28;20456;-90
2022/06/19 11:11:40;;;;;;;15.27;13.93;;;33.80;42.00;;;;;;5023358;28;21020;-90
2022/06/19 11:14:30;;;;;;;15.70;14.10;;;33.80;42.60;;;;;;5034156;28;20457;-91
2022/06/19 11:17:05;;;;;;;22.00;13.73;;;37.40;45.10;;;;;;5038561;28;20436;-89
2022/06/19 11:19:34;;;;;;;16.63;15.23;;;33.70;42.30;;;;;;5022200;28;20448;-90
2022/06/19 11:22:00;;;;;;;15.07;13.47;;;;;;;;;;5022480;28;20447;-88
2022/06/19 11:24:30;;;;;;;21.20;14.63;;;33.80;41.10;;;;;;5018743;28;21603;-90
2022/06/19 11:26:56;;;;;;;15.63;14.00;;;;;;;;;;5020408;28;20995;-88
2022/06/19 11:29:25;;;;;;;21.90;13.53;;;33.40;42.70;;;;;;5027851;28;20463;-90
2022/06/19 11:32:13;;;;;;;17.83;13.97;;;33.60;42.60;;;;;;5025134;28;20507;-90
2022/06/19 11:34:44;;;;;;;15.87;14.00;;;33.50;42.20;;;;;;5028918;28;20467;-89
2022/06/19 11:37:51;;;;;;;17.80;13.77;;;33.40;42.70;;;;;;5019526;28;20449;-89
2022/06/19 11:40:26;;;;;;;19.17;15.60;;;33.90;41.00;;;;;;5014318;28;21093;-89
2022/06/19 11:42:54;;;;;;;17.27;15.60;;;34.20;42.20;;;;;;5016663;28;20471;-89
2022/06/19 11:45:21;;;;;;;15.93;14.27;;;;;;;;;;5027918;28;20466;-89
2022/06/19 11:47:55;;;;;;;15.90;13.20;;;33.80;41.50;;;;;;5032812;28;20468;-90
2022/06/19 11:50:36;;;;;;;18.00;16.10;;;33.70;41.90;;;;;;5027856;28;20456;-88
2022/06/19 11:53:05;;;;;;;15.90;14.43;;;33.90;43.00;;;;;;5014259;28;20455;-88
2022/06/19 11:55:54;;;;;;;22.07;14.80;;;34.10;42.80;;;;;;5029711;28;20476;-89
2022/06/19 11:58:31;;;;;;;15.40;13.10;;;33.80;41.70;;;;;;5026319;28;20507;-88
2022/06/19 12:01:13;;;;;;;15.57;14.00;;;34.00;42.50;;;;;;5025534;28;20449;-89
2022/06/19 12:03:59;;;;;;;22.23;13.40;;;34.20;42.60;;;;;;5023829;28;20439;-89
2022/06/19 12:06:50;;;;;;;16.03;14.50;;;34.10;42.40;;;;;;5026709;28;20438;-89
2022/06/19 12:09:38;;;;;;;18.77;13.70;;;33.80;41.90;;;;;;5018441;28;20533;-89
2022/06/19 12:12:13;;;;;;;16.17;14.37;;;33.90;42.10;;;;;;5024483;28;20485;-89
2022/06/19 12:14:58;;;;;;;16.83;13.47;;;33.90;42.10;;;;;;5034642;28;20484;-89
2022/06/19 12:17:32;;;;;;;16.93;15.13;;;34.30;42.20;;;;;;5033853;28;21028;-90
2022/06/19 12:20:03;;;;;;;15.07;13.53;;;34.20;43.00;;;;;;5020106;28;20459;-88
2022/06/19 12:22:49;;;;;;;15.73;14.10;;;34.20;43.40;;;;;;5020585;28;21061;-88
2022/06/19 12:25:31;;;;;;;16.07;13.03;;;34.40;42.00;;;;;;5014070;28;20442;-89
2022/06/19 12:28:06;;;;;;;22.70;15.00;;;34.50;42.10;;;;;;5036729;28;20479;-89
2022/06/19 12:30:51;;;;;;;19.03;14.40;;;34.00;43.30;;;;;;5019336;28;21367;-90
2022/06/19 12:33:26;;;;;;;16.27;14.60;;;33.90;43.90;;;;;;5022099;28;20541;-88
2022/06/19 12:35:52;;;;;;;15.87;14.20;;;;;;;;;;5024181;28;20448;-90
2022/06/19 12:38:21;;;;;;;14.87;13.30;;;34.50;44.80;;;;;;5018350;28;20423;-90
2022/06/19 12:40:59;;;;;;;16.77;15.10;;;34.40;43.70;;;;;;5026947;28;20622;-89
2022/06/19 12:43:39;;;;;;;14.13;12.87;;;34.10;43.00;;;;;;5028572;28;21487;-90
2022/06/19 12:46:29;;;;;;;21.03;15.07;;;34.30;44.80;;;;;;5024800;28;20424;-89
2022/06/19 12:49:18;;;;;;;23.80;15.27;;;34.80;47.20;;;;;;5018902;28;20458;-89
2022/06/19 12:52:10;;;;;;;20.00;15.13;;;34.60;44.40;;;;;;5028630;28;20469;-89
2022/06/19 12:55:09;;;;;;;23.23;15.13;;;34.90;44.00;;;;;;5023603;28;21624;-89
2022/06/19 12:57:48;;;;;;;17.10;14.80;;;35.00;43.90;;;;;;5021711;28;20861;-89
2022/06/19 13:00:32;;;;;;;19.00;14.50;;;34.80;44.00;;;;;;5020943;28;20458;-88
2022/06/19 13:03:40;;;;;;;18.10;16.23;;;34.80;43.10;;;;;;5019450;28;20813;-87
2022/06/19 13:06:21;;;;;;;18.27;14.83;;;34.90;42.50;;;;;;5024749;28;20450;-89
2022/06/19 13:09:04;;;;;;;15.57;14.10;;;35.10;43.60;;;;;;5021353;28;20473;-88
2022/06/19 13:12:08;;;;;;;19.10;15.30;;;34.50;42.30;;;;;;5018938;28;20425;-88
2022/06/19 13:14:34;;;;;;;16.30;14.30;;;;;;;;;;5028946;28;20462;-87
2022/06/19 13:17:16;;;;;;;15.43;14.33;;;34.70;43.40;;;;;;5014205;28;20433;-88
2022/06/19 13:20:03;;;;;;;17.70;16.07;;;34.70;43.90;;;;;;5019608;28;20208;-89
2022/06/19 13:22:57;;;;;;;15.23;13.83;;;34.50;45.10;;;;;;5026164;28;21130;-89
2022/06/19 13:25:46;;;;;;;20.37;15.80;;;34.20;45.00;;;;;;5024761;28;21229;-86
2022/06/19 13:28:32;;;;;;;15.40;14.03;;;34.50;43.40;;;;;;5024527;28;20523;-87
2022/06/19 13:31:22;;;;;;;17.33;15.53;;;34.30;44.10;;;;;;5036176;28;20515;-89
2022/06/19 13:34:16;;;;;;;19.00;16.07;;;34.90;44.20;;;;;;5027412;28;20456;-90
2022/06/19 13:37:02;;;;;;;16.63;14.97;;;34.80;44.40;;;;;;5022485;28;20436;-89